Weather observations for the past three days for
Rutland-Southern Vermont Regional Airport
Imperial (Metric)
Date Time (edt) Wind (mph) Vis. (mi.) Weather Sky Cond. Temperature (ºF) Relative Humidity Wind Chill (°F) Heat Index (°F) Pressure Precipitation (in)
Air Dwpt 6 hour altimeter (in) sea level (mb) 1 hr 3 hr 6 hr
Max. Min.
05 08:56 NE 5 10.00 Overcast OVC010 62.1 60.1 93% 29.9 1011.6
05 07:56 Calm 10.00 Overcast BKN017 BKN024 OVC034 60.1 59 61 55.9 96% 29.88 1011.2
05 06:56 Calm 10.00 Overcast OVC020 59 57.9 96% 29.87 1010.6
05 05:56 Calm 10.00 Overcast OVC022 57.9 57.9 100% 29.86 1010.5
05 04:56 Calm 10.00 Partly Cloudy SCT028 55.9 55.9 100% 29.86 1010.3
05 03:56 SE 5 10.00 Fair CLR 57 57 100% 29.86 1010.3
05 02:56 Calm 10.00 Fair CLR 57.9 57.9 100% 29.86 1010.3
05 01:56 Calm 10.00 Mostly Cloudy BKN042 BKN085 60.1 59 66.9 60.1 96% 29.87 1010.6
05 00:56 Calm 10.00 Mostly Cloudy BKN036 62.1 60.1 93% 29.87 1010.6
04 23:56 E 3 10.00 Overcast OVC085 63 60.1 90% 29.88 1010.8
04 22:56 Vrbl 3 10.00 Overcast OVC085 66 59 78% 29.88 1010.8
04 21:56 Calm 10.00 Overcast BKN050 OVC090 64.9 62.1 90% 29.88 1011.1
04 20:56 NW 3 10.00 Overcast OVC055 66.9 61 81% 29.88 1011.0
04 19:56 Calm 10.00 Overcast SCT055 OVC090 66.9 64 75.9 66.9 91% 29.87 1010.8
04 18:56 Calm 10.00 Mostly Cloudy BKN090 70 62.1 76% 29.86 1010.5
04 17:56 NW 3 10.00 Overcast SCT070 OVC085 72 62.1 71% 29.85 1010.2
04 16:56 NW 6 10.00 Overcast OVC085 73 61 66% 29.86 1010.4
04 15:56 N 9 10.00 Overcast SCT075 OVC090 75 61 62% 77 29.86 1010.3
04 14:56 N 6 10.00 Overcast FEW048 BKN060 OVC075 73 60.1 64% 29.87 1010.5
04 13:56 N 9 10.00 Overcast FEW040 OVC080 75 60.1 75 61 60% 77 29.87 1010.5
04 12:56 NW 9 10.00 Mostly Cloudy FEW040 BKN070 73.9 59 60% 29.88 1010.8
04 11:56 NW 8 10.00 Mostly Cloudy SCT037 BKN046 BKN065 71.1 57.9 63% 29.89 1011.4
04 10:56 N 8 10.00 Partly Cloudy SCT028 SCT035 72 62.1 71% 29.9 1011.5
04 09:56 Calm 10.00 Fair CLR 70 63 79% 29.9 1011.5
04 08:56 Calm 10.00 Fair CLR 66 61 84% 29.9 1011.5
04 07:56 Calm 10.00 Fair CLR 61 59 62.1 57.9 93% 29.9 1011.7
04 06:56 SE 5 10.00 Mostly Cloudy BKN055 57.9 57.9 100% 29.89 1011.2
04 05:56 SE 7 10.00 Overcast OVC060 59 57 93% 29.87 1010.7
04 04:56 E 6 10.00 A Few Clouds FEW045 59 57.9 96% 29.86 1010.3
04 03:56 SE 3 10.00 Mostly Cloudy BKN038 60.1 59 96% 29.86 1010.5
04 02:56 SE 3 10.00 A Few Clouds FEW070 60.1 59 96% 29.86 1010.3
04 01:56 E 9 10.00 Mostly Cloudy BKN080 62.1 60.1 70 62.1 93% 29.88 1011.0
04 00:56 SE 9 10.00 A Few Clouds FEW080 62.1 60.1 93% 29.9 1011.6
03 23:56 SE 7 10.00 Mostly Cloudy BKN080 63 61 93% 29.9 1011.6
03 22:56 S 5 9.00 Overcast OVC070 63 63 100% 29.91 1012.0
03 21:56 SE 3 10.00 A Few Clouds FEW060 66 64 93% 29.91 1012.1
03 20:56 Calm 10.00 Mostly Cloudy SCT065 BKN080 70 63 79% 29.91 1011.9
03 19:56 Calm 10.00 Fair CLR 69.1 66 79 69.1 90% 29.88 1011.0
03 18:56 S 3 10.00 Fair CLR 73 68 84% 29.87 1010.7
03 17:56 SW 6 10.00 A Few Clouds FEW080 77 68 74% 79 29.88 1010.9
03 16:56 SW 5 10.00 A Few Clouds FEW030 78.1 68 71% 80 29.88 1011.0
03 15:56 SW 9 10.00 Mostly Cloudy SCT029 BKN036 79 66.9 67% 81 29.88 1011.1
03 14:56 W 7 10.00 Mostly Cloudy BKN023 BKN030 BKN050 77 68 74% 79 29.89 1011.4
03 13:56 SW 3 10.00 Overcast BKN021 OVC050 73.9 66.9 75 64 79% 29.91 1011.9
03 12:56 S 5 10.00 Overcast OVC019 72 66.9 84% 29.93 1012.4
03 11:56 W 8 10.00 Mostly Cloudy SCT015 BKN038 BKN110 72 66.9 84% 29.94 1012.7
03 10:56 S 6 10.00 Overcast FEW015 SCT024 OVC038 70 66 87% 29.95 1013.1
03 09:56 SE 3 10.00 Overcast SCT017 OVC031 66 63 90% 29.96 1013.5
03 08:56 SE 5 10.00 Overcast BKN021 OVC027 64.9 61 87% 29.96 1013.5
03 07:56 SE 6 10.00 Overcast OVC021 64 60.1 64 63 87% 29.96 1013.8
03 06:56 SE 9 10.00 Overcast OVC018 63 60.1 90% 29.96 1013.9
03 05:56 SE 8 10.00 Overcast OVC020 63 60.1 90% 29.96 1013.6
03 04:56 E 10 10.00 Overcast OVC022 63 60.1 90% 29.96 1013.8
03 03:56 SE 9 10.00 Overcast OVC022 63 60.1 90% 29.97 1014.2
03 02:56 E 10 10.00 Overcast OVC028 63 60.1 90% 29.98 1014.3
03 01:56 SE 12 10.00 Light Rain OVC026 63 60.1 68 63 90% 29.99 1014.7
03 00:56 SE 12 10.00 Overcast OVC030 66 57.9 75% 30 1015.1
02 23:56 SE 10 10.00 Overcast OVC034 66 57 73% 30 1015.1
02 22:56 SE 16 10.00 Overcast OVC036 66.9 57.9 73% 30.03 1016.1
02 21:56 SE 9 G 18 10.00 Overcast OVC034 68 59 73% 30.05 1016.8
02 20:56 S 12 G 21 10.00 Overcast OVC036 68 59 73% 30.06 1017.0
02 19:56 SE 9 10.00 Overcast OVC034 66.9 60.1 70 66.9 79% 30.05 1016.7
02 18:56 SE 13 10.00 Overcast OVC032 66.9 60.1 79% 30.06 1017.2
02 17:56 SE 15 10.00 Overcast OVC030 68 59 73% 30.1 1018.6
02 16:56 SE 14 10.00 Overcast OVC030 68 60.1 76% 30.1 1018.6
02 15:56 SE 17 G 24 10.00 Overcast OVC030 68 60.1 76% 30.1 1018.6
02 14:56 SE 15 10.00 Overcast SCT032 BKN046 OVC055 69.1 59 70% 30.13 1019.3
02 13:56 SE 18 G 24 10.00 Overcast OVC034 69.1 57.9 69.1 64 68% 30.13 1019.4
02 12:56 SE 18 10.00 Overcast SCT038 OVC055 69.1 55.9 63% 30.13 1019.5
02 11:56 SE 10 10.00 Mostly Cloudy BKN042 68 57 68% 30.15 1020.1
02 10:56 SE 16 G 21 10.00 Overcast OVC046 66.9 57 71% 30.16 1020.4
02 09:56 SE 15 G 23 10.00 Overcast OVC050 66 55 68% 30.15 1020.2
Date Time (edt) Wind (mph) Vis. (mi.) Weather Sky Cond. Air Dwpt Max. Min. Relative Humidity Wind Chill (°F) Heat Index (°F) altimeter (in) sea level (mb) 1 hr 3 hr 6 hr
6 hour
Temperature (ºF) Pressure Precipitation (in)